createdAt,value
2022-09-06T00:00:08.641Z,56.52
2022-09-06T00:01:17.245Z,56.64
2022-09-06T00:02:20.796Z,56.86
2022-09-06T00:03:24.157Z,57.00
2022-09-06T00:04:27.380Z,57.27
2022-09-06T00:05:31.984Z,57.30
2022-09-06T00:06:39.234Z,57.37
2022-09-06T00:07:42.467Z,57.33
2022-09-06T00:08:46.659Z,56.96
2022-09-06T00:09:49.834Z,56.91
2022-09-06T00:11:01.300Z,56.65
2022-09-06T00:12:04.562Z,56.46
2022-09-06T00:13:08.996Z,56.65
2022-09-06T00:14:11.993Z,56.86
2022-09-06T00:15:14.958Z,56.69
2022-09-06T00:16:21.194Z,56.78
2022-09-06T00:17:24.202Z,57.09
2022-09-06T00:18:27.377Z,57.66
2022-09-06T00:19:30.389Z,57.88
2022-09-06T00:20:34.946Z,57.57
2022-09-06T00:21:38.083Z,57.68
2022-09-06T00:22:41.373Z,57.62
2022-09-06T00:23:44.536Z,58.16
2022-09-06T00:24:47.663Z,57.78
2022-09-06T00:25:50.596Z,58.00
2022-09-06T00:26:53.551Z,58.39
2022-09-06T00:28:05.630Z,58.62
2022-09-06T00:29:08.705Z,58.65
2022-09-06T00:30:12.210Z,58.77
2022-09-06T00:31:24.119Z,58.86
2022-09-06T00:32:27.688Z,59.10
2022-09-06T00:33:30.690Z,59.12
2022-09-06T00:34:33.804Z,59.03
2022-09-06T00:35:36.828Z,59.00
2022-09-06T00:36:39.876Z,59.02
2022-09-06T00:37:42.858Z,59.12
2022-09-06T00:38:50.339Z,58.98
2022-09-06T00:39:53.197Z,59.37
2022-09-06T00:40:56.189Z,59.63
2022-09-06T00:41:59.105Z,59.73
2022-09-06T00:43:02.175Z,60.01
2022-09-06T00:44:09.106Z,59.96
2022-09-06T00:45:12.905Z,60.02
2022-09-06T00:46:21.251Z,59.93
2022-09-06T00:47:24.298Z,60.40
2022-09-06T00:48:31.096Z,60.32
2022-09-06T00:49:42.179Z,60.55
2022-09-06T00:50:49.275Z,60.98
2022-09-06T00:51:56.464Z,60.98
2022-09-06T00:52:59.614Z,61.08
2022-09-06T00:54:05.613Z,61.11
2022-09-06T00:55:10.451Z,61.07
2022-09-06T00:56:13.986Z,60.94
2022-09-06T00:57:18.676Z,61.02
2022-09-06T00:58:22.771Z,60.97
2022-09-06T00:59:29.845Z,61.24
2022-09-06T01:00:32.864Z,61.86
2022-09-06T01:01:36.046Z,61.95
2022-09-06T01:02:39.274Z,62.10
2022-09-06T01:03:43.245Z,62.61
2022-09-06T01:04:48.440Z,62.84
2022-09-06T01:06:24.999Z,63.04
2022-09-06T01:07:38.693Z,63.17
2022-09-06T01:09:06.913Z,64.06
2022-09-06T01:10:43.637Z,63.81
2022-09-06T01:12:07.580Z,64.04
2022-09-06T01:13:28.423Z,64.12
2022-09-06T01:14:52.740Z,64.34
2022-09-06T01:16:10.534Z,64.80
2022-09-06T01:17:28.813Z,65.24
2022-09-06T01:18:50.546Z,65.87
2022-09-06T01:20:18.244Z,66.08
2022-09-06T01:21:39.616Z,66.25
2022-09-06T01:23:25.860Z,66.56
2022-09-06T01:24:47.028Z,66.55
2022-09-06T01:26:23.901Z,66.89
2022-09-06T01:27:57.971Z,67.18
2022-09-06T01:29:16.633Z,66.98
2022-09-06T01:30:20.943Z,67.52
2022-09-06T01:31:42.238Z,67.29
2022-09-06T01:32:56.882Z,67.87
2022-09-06T01:34:05.971Z,67.51
2022-09-06T01:35:32.116Z,67.12
2022-09-06T01:37:10.345Z,67.11
2022-09-06T01:38:15.339Z,67.10
2022-09-06T01:39:30.481Z,67.52
2022-09-06T01:40:36.753Z,67.44
2022-09-06T01:41:39.863Z,67.58
2022-09-06T01:42:48.314Z,67.66
2022-09-06T01:43:53.674Z,67.56
2022-09-06T01:45:25.577Z,67.69
2022-09-06T01:47:04.996Z,68.04
2022-09-06T01:48:39.885Z,67.96
2022-09-06T01:50:04.206Z,67.57
2022-09-06T01:51:15.377Z,66.96
2022-09-06T01:52:21.279Z,67.14
2022-09-06T01:53:42.980Z,66.01
2022-09-06T01:55:02.971Z,65.96
2022-09-06T01:56:16.745Z,66.10
2022-09-06T01:57:38.592Z,66.16
2022-09-06T01:59:05.796Z,66.44
2022-09-06T02:00:12.440Z,65.65
2022-09-06T02:01:36.291Z,64.81
2022-09-06T02:03:21.225Z,64.65
2022-09-06T02:04:30.299Z,64.66
2022-09-06T02:05:41.916Z,64.80
2022-09-06T02:06:58.404Z,63.97
2022-09-06T02:08:17.476Z,63.81
2022-09-06T02:09:26.250Z,63.99
2022-09-06T02:10:41.041Z,64.12
2022-09-06T02:11:50.231Z,63.81
2022-09-06T02:12:57.707Z,63.84
2022-09-06T02:14:10.203Z,63.90
2022-09-06T02:15:30.153Z,63.82
2022-09-06T02:16:38.288Z,63.91
2022-09-06T02:17:49.145Z,64.01
2022-09-06T02:19:07.914Z,63.91
2022-09-06T02:20:16.793Z,64.15
2022-09-06T02:21:27.120Z,64.04
2022-09-06T02:22:33.777Z,63.84
2022-09-06T02:23:40.731Z,63.83
2022-09-06T02:24:47.788Z,63.32
2022-09-06T02:26:07.521Z,63.32
2022-09-06T02:27:12.266Z,63.25
2022-09-06T02:28:17.025Z,62.81
2022-09-06T02:29:20.335Z,62.65
2022-09-06T02:30:27.439Z,62.86
2022-09-06T02:31:37.081Z,62.92
2022-09-06T02:32:51.755Z,62.59
2022-09-06T02:33:56.815Z,62.56
2022-09-06T02:35:00.236Z,62.59
2022-09-06T02:36:09.036Z,62.80
2022-09-06T02:37:13.291Z,62.67
2022-09-06T02:38:17.862Z,62.78
2022-09-06T02:39:20.922Z,63.14
2022-09-06T02:40:24.573Z,63.15
2022-09-06T02:41:29.601Z,62.86
2022-09-06T02:42:36.281Z,62.78
2022-09-06T02:43:40.449Z,62.89
2022-09-06T02:44:43.678Z,62.69
2022-09-06T02:45:46.701Z,62.59
2022-09-06T02:46:51.814Z,62.59
2022-09-06T02:47:58.007Z,63.15
2022-09-06T02:49:00.963Z,62.95
2022-09-06T02:50:04.135Z,63.04
2022-09-06T02:51:09.038Z,63.00
2022-09-06T02:52:12.293Z,62.62
2022-09-06T02:53:16.250Z,62.59
2022-09-06T02:54:19.161Z,62.69
2022-09-06T02:55:22.020Z,62.48
2022-09-06T02:56:25.275Z,62.39
2022-09-06T02:57:28.216Z,62.38
2022-09-06T02:58:31.376Z,62.85
2022-09-06T02:59:34.178Z,63.17
2022-09-06T03:00:37.795Z,63.29
2022-09-06T03:01:40.997Z,63.24
2022-09-06T03:02:44.100Z,63.47
2022-09-06T03:03:47.168Z,63.45
2022-09-06T03:04:50.234Z,63.26
2022-09-06T03:05:54.495Z,63.45
2022-09-06T03:06:57.630Z,63.34
2022-09-06T03:08:00.800Z,63.48
2022-09-06T03:09:04.097Z,63.07
2022-09-06T03:10:07.559Z,63.25
2022-09-06T03:11:10.662Z,63.26
2022-09-06T03:12:13.732Z,63.31
2022-09-06T03:13:16.838Z,63.40
2022-09-06T03:14:20.308Z,63.59
2022-09-06T03:15:23.325Z,63.65
2022-09-06T03:16:26.490Z,63.63
2022-09-06T03:17:29.452Z,63.54
2022-09-06T03:18:32.938Z,63.73
2022-09-06T03:19:36.351Z,64.06
2022-09-06T03:20:39.314Z,64.13
2022-09-06T03:21:42.224Z,64.23
2022-09-06T03:22:48.390Z,64.30
2022-09-06T03:23:51.394Z,64.27
2022-09-06T03:24:55.253Z,64.10
2022-09-06T03:25:58.093Z,63.86
2022-09-06T03:27:00.987Z,63.79
2022-09-06T03:28:04.007Z,63.88
2022-09-06T03:29:06.902Z,64.09
2022-09-06T03:30:10.544Z,64.17
2022-09-06T03:31:13.703Z,63.32
2022-09-06T03:32:16.762Z,63.23
2022-09-06T03:33:21.014Z,63.09
2022-09-06T03:34:24.046Z,63.45
2022-09-06T03:35:26.917Z,63.43
2022-09-06T03:36:30.028Z,63.32
2022-09-06T03:37:32.920Z,63.08
2022-09-06T03:38:36.022Z,63.27
2022-09-06T03:39:39.126Z,63.30
2022-09-06T03:40:45.481Z,63.61
2022-09-06T03:41:48.473Z,63.51
2022-09-06T03:42:51.398Z,63.26
2022-09-06T03:43:54.328Z,63.18
2022-09-06T03:44:57.161Z,63.38
2022-09-06T03:46:00.129Z,63.29
2022-09-06T03:47:04.330Z,63.15
2022-09-06T03:48:07.407Z,62.67
2022-09-06T03:49:10.663Z,62.52
2022-09-06T03:50:13.617Z,62.35
2022-09-06T03:51:16.526Z,62.48
2022-09-06T03:52:19.599Z,62.72
2022-09-06T03:53:24.356Z,62.16
2022-09-06T03:54:28.884Z,61.94
2022-09-06T03:55:31.878Z,62.16
2022-09-06T03:56:34.787Z,62.47
2022-09-06T03:57:38.029Z,62.18
2022-09-06T03:58:41.073Z,61.95
2022-09-06T03:59:44.132Z,61.90
2022-09-06T04:00:47.324Z,61.82
2022-09-06T04:01:50.686Z,62.13
2022-09-06T04:02:58.561Z,61.82
2022-09-06T04:04:03.981Z,61.82
2022-09-06T04:05:07.820Z,62.07
2022-09-06T04:06:11.046Z,62.00
2022-09-06T04:07:13.950Z,61.39
2022-09-06T04:08:17.096Z,61.16
2022-09-06T04:09:20.480Z,61.39
2022-09-06T04:10:23.703Z,61.53
2022-09-06T04:11:26.692Z,61.19
2022-09-06T04:12:29.661Z,61.25
2022-09-06T04:13:34.021Z,61.55
2022-09-06T04:14:37.099Z,61.75
2022-09-06T04:15:39.932Z,61.75
2022-09-06T04:16:42.973Z,61.75
2022-09-06T04:17:46.741Z,61.46
2022-09-06T04:18:49.783Z,61.33
2022-09-06T04:19:52.702Z,61.58
2022-09-06T04:20:56.585Z,61.71
2022-09-06T04:21:59.477Z,61.59
2022-09-06T04:23:02.317Z,61.65
2022-09-06T04:24:05.362Z,61.31
2022-09-06T04:25:08.930Z,61.56
2022-09-06T04:26:12.295Z,61.59
2022-09-06T04:27:15.266Z,61.61
2022-09-06T04:28:21.333Z,61.25
2022-09-06T04:29:24.989Z,60.84
2022-09-06T04:30:27.886Z,60.92
2022-09-06T04:31:34.197Z,60.94
2022-09-06T04:32:37.116Z,61.26
2022-09-06T04:33:40.488Z,61.42
2022-09-06T04:34:43.377Z,61.30
2022-09-06T04:35:50.518Z,61.22
2022-09-06T04:36:53.364Z,61.51
2022-09-06T04:37:56.512Z,60.98
2022-09-06T04:38:59.708Z,60.81
2022-09-06T04:40:03.138Z,60.78
2022-09-06T04:41:06.927Z,60.93
2022-09-06T04:42:09.875Z,60.72
2022-09-06T04:43:12.916Z,60.37
2022-09-06T04:44:15.839Z,60.52
2022-09-06T04:45:18.821Z,60.54
2022-09-06T04:46:25.346Z,60.63
2022-09-06T04:47:28.470Z,60.98
2022-09-06T04:48:31.409Z,60.99
2022-09-06T04:49:34.483Z,60.30
2022-09-06T04:50:41.159Z,60.10
2022-09-06T04:51:44.048Z,60.29
2022-09-06T04:52:46.954Z,59.89
2022-09-06T04:53:50.282Z,60.22
2022-09-06T04:54:53.311Z,60.33
2022-09-06T04:55:58.366Z,59.61
2022-09-06T04:57:01.233Z,59.55
2022-09-06T04:58:05.318Z,59.63
2022-09-06T04:59:08.212Z,59.88
2022-09-06T05:00:11.432Z,59.86
2022-09-06T05:01:15.184Z,59.71
2022-09-06T05:02:18.254Z,59.98
2022-09-06T05:03:21.194Z,59.88
2022-09-06T05:04:24.252Z,59.88
2022-09-06T05:05:27.565Z,59.92
2022-09-06T05:06:30.954Z,59.78
2022-09-06T05:07:34.977Z,59.81
2022-09-06T05:08:42.003Z,59.39
2022-09-06T05:09:45.181Z,59.66
2022-09-06T05:10:52.726Z,59.62
2022-09-06T05:11:56.343Z,59.39
2022-09-06T05:12:59.356Z,59.75
2022-09-06T05:14:02.379Z,59.79
2022-09-06T05:15:05.592Z,59.39
2022-09-06T05:16:10.348Z,59.68
2022-09-06T05:17:17.327Z,59.68
2022-09-06T05:18:20.349Z,59.22
2022-09-06T05:19:27.407Z,59.36
2022-09-06T05:20:30.843Z,59.31
2022-09-06T05:21:33.885Z,59.58
2022-09-06T05:22:37.625Z,59.95
2022-09-06T05:23:40.533Z,59.87
2022-09-06T05:24:43.562Z,60.11
2022-09-06T05:25:46.631Z,59.83
2022-09-06T05:26:49.502Z,59.29
2022-09-06T05:27:52.352Z,59.33
2022-09-06T05:28:55.225Z,59.51
2022-09-06T05:29:58.132Z,59.45
2022-09-06T05:31:12.298Z,59.25
2022-09-06T05:32:15.291Z,59.62
2022-09-06T05:33:23.178Z,59.48
2022-09-06T05:34:26.186Z,59.14
2022-09-06T05:35:29.184Z,59.11
2022-09-06T05:36:32.531Z,58.87
2022-09-06T05:37:35.511Z,58.92
2022-09-06T05:38:38.508Z,59.00
2022-09-06T05:39:41.541Z,58.62
2022-09-06T05:40:44.649Z,58.69
2022-09-06T05:41:48.316Z,59.08
2022-09-06T05:42:51.260Z,59.30
2022-09-06T05:43:58.182Z,59.32
2022-09-06T05:45:02.153Z,59.15
2022-09-06T05:46:06.282Z,58.86
2022-09-06T05:47:09.732Z,59.04
2022-09-06T05:48:12.687Z,59.23
2022-09-06T05:49:15.655Z,59.48
2022-09-06T05:50:18.585Z,59.77
2022-09-06T05:51:22.011Z,58.01
2022-09-06T05:52:24.979Z,58.00
2022-09-06T05:53:27.940Z,58.11
2022-09-06T05:54:30.819Z,58.05
2022-09-06T05:55:40.062Z,57.99
2022-09-06T05:56:45.772Z,58.21
2022-09-06T05:57:48.823Z,57.77
2022-09-06T05:58:51.947Z,57.06
2022-09-06T05:59:54.835Z,57.25
2022-09-06T06:01:19.071Z,57.06
2022-09-06T06:02:23.141Z,57.61
2022-09-06T06:03:26.067Z,57.46
2022-09-06T06:04:28.866Z,57.00
2022-09-06T06:05:31.847Z,56.81
2022-09-06T06:06:35.094Z,56.49
2022-09-06T06:07:39.320Z,56.59
2022-09-06T06:08:42.179Z,56.57
2022-09-06T06:09:48.187Z,56.95
2022-09-06T06:10:51.038Z,56.32
2022-09-06T06:11:53.991Z,55.70
2022-09-06T06:12:58.122Z,56.03
2022-09-06T06:14:00.928Z,56.40
2022-09-06T06:15:06.213Z,56.40
2022-09-06T06:16:13.914Z,56.27
2022-09-06T06:17:17.026Z,56.13
2022-09-06T06:18:20.598Z,55.89
2022-09-06T06:19:23.600Z,56.01
2022-09-06T06:20:26.479Z,56.14
2022-09-06T06:21:32.030Z,56.00
2022-09-06T06:22:34.862Z,56.06
2022-09-06T06:23:37.908Z,55.39
2022-09-06T06:24:40.785Z,55.26
2022-09-06T06:25:43.880Z,55.37
2022-09-06T06:26:47.208Z,55.80
2022-09-06T06:27:50.240Z,55.36
2022-09-06T06:28:53.814Z,55.33
2022-09-06T06:29:56.830Z,55.02
2022-09-06T06:30:59.679Z,55.31
2022-09-06T06:32:02.988Z,55.36
2022-09-06T06:33:05.974Z,55.55
2022-09-06T06:34:09.213Z,55.83
2022-09-06T06:35:12.437Z,55.01
2022-09-06T06:36:15.429Z,55.23
2022-09-06T06:37:18.886Z,54.61
2022-09-06T06:38:21.877Z,54.88
2022-09-06T06:39:24.950Z,55.13
2022-09-06T06:40:27.929Z,54.99
2022-09-06T06:41:33.190Z,54.81
2022-09-06T06:42:36.063Z,54.68
2022-09-06T06:43:39.412Z,54.16
2022-09-06T06:44:42.407Z,54.76
2022-09-06T06:45:50.256Z,55.25
2022-09-06T06:46:53.308Z,55.52
2022-09-06T06:47:56.166Z,55.08
2022-09-06T06:48:59.278Z,54.52
2022-09-06T06:50:02.321Z,54.90
2022-09-06T06:51:06.925Z,54.41
2022-09-06T06:52:09.835Z,54.52
2022-09-06T06:53:12.922Z,54.29
2022-09-06T06:54:15.876Z,53.85
2022-09-06T06:55:18.877Z,53.85
2022-09-06T06:56:26.487Z,54.40
2022-09-06T06:57:29.606Z,54.27
2022-09-06T06:58:33.693Z,54.49
2022-09-06T06:59:36.757Z,54.48
2022-09-06T07:00:40.848Z,54.65
2022-09-06T07:01:43.918Z,54.33
2022-09-06T07:02:46.944Z,54.36
2022-09-06T07:03:50.454Z,54.31
2022-09-06T07:04:53.442Z,53.86
2022-09-06T07:06:12.424Z,54.08
2022-09-06T07:07:33.495Z,52.64
2022-09-06T07:08:38.795Z,53.45
2022-09-06T07:11:06.552Z,53.34
2022-09-06T07:12:09.368Z,52.42
2022-09-06T07:13:12.271Z,53.02
2022-09-06T07:14:18.850Z,53.05
2022-09-06T07:15:21.869Z,53.41
2022-09-06T07:16:25.450Z,53.38
2022-09-06T07:17:28.666Z,52.98
2022-09-06T07:18:31.560Z,52.91
2022-09-06T07:22:20.468Z,54.24
2022-09-06T07:24:48.443Z,51.76
2022-09-06T07:25:51.573Z,52.30
2022-09-06T07:28:19.896Z,52.09
2022-09-06T07:29:22.800Z,52.42
2022-09-06T07:30:26.103Z,52.76
2022-09-06T07:32:53.203Z,51.82
2022-09-06T07:33:56.386Z,52.16
2022-09-06T07:34:59.467Z,52.30
2022-09-06T07:36:03.679Z,52.16
2022-09-06T07:37:06.703Z,51.77
2022-09-06T07:38:09.671Z,51.92
2022-09-06T07:39:12.666Z,51.93
2022-09-06T07:40:15.530Z,52.73
2022-09-06T07:41:19.677Z,52.10
2022-09-06T07:42:22.858Z,51.77
2022-09-06T07:43:27.181Z,51.65
2022-09-06T07:44:31.119Z,51.55
2022-09-06T07:45:34.794Z,51.65
2022-09-06T07:46:38.171Z,51.13
2022-09-06T07:47:57.510Z,50.90
2022-09-06T07:49:00.815Z,49.89
2022-09-06T07:51:29.845Z,49.51
2022-09-06T07:54:13.224Z,49.36
2022-09-06T07:55:19.421Z,49.38
2022-09-06T07:56:23.169Z,48.72
2022-09-06T07:57:26.248Z,47.95
2022-09-06T07:58:33.895Z,48.23
2022-09-06T07:59:40.050Z,48.07
2022-09-06T08:00:45.821Z,47.51
2022-09-06T08:01:49.793Z,47.45
2022-09-06T08:02:52.626Z,47.65
2022-09-06T08:03:56.155Z,47.56
2022-09-06T08:04:59.168Z,48.04
2022-09-06T08:06:10.035Z,47.49
2022-09-06T08:09:59.756Z,47.64
2022-09-06T08:11:03.307Z,47.49
2022-09-06T08:12:10.034Z,46.75
2022-09-06T08:13:13.121Z,47.46
2022-09-06T08:14:16.350Z,48.19
2022-09-06T08:15:19.459Z,47.47
2022-09-06T08:16:24.701Z,46.66
2022-09-06T08:17:27.927Z,47.24
2022-09-06T08:18:31.024Z,46.68
2022-09-06T08:19:34.893Z,46.75
2022-09-06T08:20:37.812Z,46.75
2022-09-06T08:21:41.565Z,47.46
2022-09-06T08:22:44.627Z,47.32
2022-09-06T08:23:49.757Z,45.86
2022-09-06T08:24:52.706Z,46.06
2022-09-06T08:26:03.504Z,46.57
2022-09-06T08:27:08.158Z,46.87
2022-09-06T08:28:11.258Z,46.87
2022-09-06T08:29:14.689Z,47.31
2022-09-06T08:30:17.731Z,47.13
2022-09-06T08:31:21.107Z,46.61
2022-09-06T08:32:25.291Z,45.73
2022-09-06T08:33:28.465Z,45.60
2022-09-06T08:34:31.515Z,44.99
2022-09-06T08:35:35.408Z,45.18
2022-09-06T08:36:40.122Z,45.34
2022-09-06T08:37:46.284Z,45.55
2022-09-06T08:38:49.405Z,46.08
2022-09-06T08:39:52.507Z,45.92
2022-09-06T08:41:07.847Z,45.11
2022-09-06T08:42:12.637Z,44.44
2022-09-06T08:43:20.387Z,44.35
2022-09-06T08:45:57.730Z,44.12
2022-09-06T08:47:04.678Z,45.06
2022-09-06T08:48:08.077Z,45.37
2022-09-06T08:49:11.539Z,43.92
2022-09-06T08:50:14.856Z,43.93
2022-09-06T08:51:50.095Z,44.20
2022-09-06T08:53:24.815Z,44.73
2022-09-06T08:54:54.365Z,44.84
2022-09-06T08:56:13.722Z,44.78
2022-09-06T08:57:44.317Z,44.55
2022-09-06T08:59:12.226Z,45.12
2022-09-06T09:00:15.576Z,44.23
2022-09-06T09:01:25.527Z,44.24
2022-09-06T09:02:36.005Z,44.76
2022-09-06T09:03:42.836Z,44.86
2022-09-06T09:04:56.368Z,44.79
2022-09-06T09:06:00.347Z,44.13
2022-09-06T09:07:30.283Z,44.05
2022-09-06T09:08:59.473Z,44.65
2022-09-06T09:10:09.264Z,45.54
2022-09-06T09:11:31.658Z,44.44
2022-09-06T09:12:42.481Z,45.04
2022-09-06T09:13:55.401Z,44.63
2022-09-06T09:15:09.594Z,43.86
2022-09-06T09:16:13.014Z,44.35
2022-09-06T09:17:25.836Z,45.17
2022-09-06T09:18:33.894Z,44.79
2022-09-06T09:19:39.799Z,43.91
2022-09-06T09:20:42.722Z,42.76
2022-09-06T09:21:45.701Z,43.39
2022-09-06T09:22:49.011Z,42.66
2022-09-06T09:23:55.752Z,43.09
2022-09-06T09:25:00.561Z,42.96
2022-09-06T09:26:11.448Z,43.00
2022-09-06T09:27:18.886Z,42.87
2022-09-06T09:28:24.415Z,43.20
2022-09-06T09:29:30.292Z,43.63
2022-09-06T09:30:57.848Z,43.24
2022-09-06T09:32:00.827Z,42.74
2022-09-06T09:33:27.775Z,42.39
2022-09-06T09:34:33.978Z,42.14
2022-09-06T09:35:42.522Z,42.06
2022-09-06T09:38:30.145Z,41.71
2022-09-06T09:39:42.605Z,42.73
2022-09-06T09:41:05.723Z,42.70
2022-09-06T09:42:10.249Z,43.40
2022-09-06T09:43:20.466Z,43.38
2022-09-06T09:44:28.401Z,42.62
2022-09-06T09:45:32.103Z,42.19
2022-09-06T09:46:39.361Z,41.73
2022-09-06T09:47:45.481Z,42.55
2022-09-06T09:49:11.948Z,43.02
2022-09-06T09:50:31.272Z,42.49
2022-09-06T09:51:43.851Z,42.63
2022-09-06T09:52:46.855Z,42.07
2022-09-06T09:53:52.225Z,41.77
2022-09-06T09:55:11.062Z,41.10
2022-09-06T09:56:16.031Z,41.12
2022-09-06T09:57:19.596Z,41.47
2022-09-06T09:58:35.900Z,41.53
2022-09-06T09:59:48.353Z,41.40
2022-09-06T10:01:17.355Z,40.94
2022-09-06T10:02:36.120Z,40.50
2022-09-06T10:05:05.339Z,40.38
2022-09-06T10:07:42.821Z,40.87
2022-09-06T10:08:45.842Z,40.56
2022-09-06T10:10:16.519Z,40.91
2022-09-06T10:11:57.361Z,39.94
2022-09-06T10:13:07.792Z,40.61
2022-09-06T10:14:41.378Z,40.71
2022-09-06T10:15:44.279Z,41.26
2022-09-06T10:16:47.490Z,39.83
2022-09-06T10:17:53.114Z,39.68
2022-09-06T10:18:56.226Z,40.32
2022-09-06T10:20:11.768Z,40.45
2022-09-06T10:21:19.441Z,40.43
2022-09-06T10:22:33.166Z,40.78
2022-09-06T10:25:37.769Z,42.68
2022-09-06T10:26:53.555Z,41.33
2022-09-06T10:28:29.396Z,40.89
2022-09-06T10:30:02.150Z,41.05
2022-09-06T10:31:30.372Z,39.85
2022-09-06T10:32:52.334Z,39.26
2022-09-06T10:34:07.327Z,39.41
2022-09-06T10:35:15.280Z,39.93
2022-09-06T10:36:25.818Z,39.20
2022-09-06T10:37:56.142Z,39.84
2022-09-06T10:39:11.043Z,38.47
2022-09-06T10:40:28.244Z,38.79
2022-09-06T10:41:58.402Z,39.21
2022-09-06T10:43:03.838Z,39.64
2022-09-06T10:44:39.616Z,40.23
2022-09-06T10:45:47.513Z,40.30
2022-09-06T10:46:57.181Z,38.86
2022-09-06T10:48:37.224Z,39.18
2022-09-06T10:49:51.307Z,39.23
2022-09-06T10:51:05.991Z,39.70
2022-09-06T10:52:15.810Z,39.59
2022-09-06T10:53:40.115Z,40.04
2022-09-06T10:54:47.233Z,40.18
2022-09-06T10:56:04.401Z,39.65
2022-09-06T11:00:42.781Z,40.96
2022-09-06T11:02:10.002Z,41.65
2022-09-06T11:06:36.181Z,41.33
2022-09-06T11:09:20.796Z,41.43
2022-09-06T11:10:35.348Z,41.69
2022-09-06T11:12:04.256Z,41.52
2022-09-06T11:13:11.607Z,40.97
2022-09-06T11:14:15.887Z,41.58
2022-09-06T11:15:20.641Z,42.17
2022-09-06T11:16:42.329Z,42.71
2022-09-06T11:17:53.718Z,40.93
2022-09-06T11:19:09.031Z,41.33
2022-09-06T11:20:33.231Z,41.43
2022-09-06T11:21:45.408Z,41.96
2022-09-06T11:23:26.346Z,41.45
2022-09-06T11:25:06.212Z,41.10
2022-09-06T11:26:21.075Z,40.38
2022-09-06T11:27:41.866Z,39.85
2022-09-06T11:28:49.627Z,39.94
2022-09-06T11:29:57.302Z,39.76
2022-09-06T11:31:03.026Z,41.47
2022-09-06T11:32:37.981Z,41.22
2022-09-06T11:33:41.305Z,40.63
2022-09-06T11:34:54.624Z,40.48
2022-09-06T11:36:49.917Z,39.72
2022-09-06T11:38:24.949Z,39.51
2022-09-06T11:41:40.265Z,38.58
2022-09-06T11:42:45.986Z,37.53
2022-09-06T11:43:51.782Z,36.80
2022-09-06T11:45:16.847Z,37.24
2022-09-06T11:46:52.605Z,38.93
2022-09-06T11:49:32.293Z,38.14
2022-09-06T11:50:54.159Z,36.92
2022-09-06T11:51:58.735Z,36.10
2022-09-06T11:53:18.708Z,36.57
2022-09-06T11:54:24.845Z,36.09
2022-09-06T11:55:54.253Z,35.72
2022-09-06T11:57:13.695Z,36.15
2022-09-06T11:58:16.618Z,36.95
2022-09-06T11:59:19.454Z,37.92
2022-09-06T12:00:24.559Z,37.35
2022-09-06T12:01:27.325Z,38.87
2022-09-06T12:02:35.594Z,38.94
2022-09-06T12:04:10.017Z,38.26
2022-09-06T12:05:21.032Z,39.27
2022-09-06T12:06:27.848Z,36.47
2022-09-06T12:07:32.654Z,36.72
2022-09-06T12:08:36.028Z,37.45
2022-09-06T12:09:46.459Z,36.92
2022-09-06T12:10:51.184Z,36.77
2022-09-06T12:11:54.503Z,37.03
2022-09-06T12:12:58.075Z,36.79
2022-09-06T12:14:06.111Z,36.96
2022-09-06T12:15:32.152Z,36.06
2022-09-06T12:17:00.723Z,35.99
2022-09-06T12:18:04.193Z,35.32
2022-09-06T12:19:08.107Z,35.92
2022-09-06T12:20:11.496Z,35.83
2022-09-06T12:21:34.562Z,35.69
2022-09-06T12:22:37.625Z,35.36
2022-09-06T12:23:41.454Z,35.19
2022-09-06T12:24:47.333Z,35.32
2022-09-06T12:25:55.020Z,34.52
2022-09-06T12:27:13.335Z,33.83
2022-09-06T12:28:35.436Z,35.05
2022-09-06T12:29:39.410Z,34.45
2022-09-06T12:30:48.318Z,34.69
2022-09-06T12:31:57.396Z,34.18
2022-09-06T12:33:02.746Z,34.48
2022-09-06T12:34:27.505Z,34.33
2022-09-06T12:37:08.332Z,33.33
2022-09-06T12:38:17.395Z,35.18
2022-09-06T12:39:22.074Z,32.97
2022-09-06T12:40:27.573Z,33.87
2022-09-06T12:41:39.352Z,32.89
2022-09-06T12:42:48.296Z,34.13
2022-09-06T12:43:51.303Z,35.34
2022-09-06T12:44:55.855Z,35.94
2022-09-06T12:46:00.156Z,34.34
2022-09-06T12:47:25.852Z,33.65
2022-09-06T12:48:31.910Z,33.40
2022-09-06T12:49:36.407Z,34.50
2022-09-06T12:50:40.803Z,34.35
2022-09-06T12:51:44.075Z,35.03
2022-09-06T12:52:56.643Z,35.10
2022-09-06T12:54:04.331Z,34.69
2022-09-06T12:55:16.824Z,35.49
2022-09-06T12:56:22.489Z,34.38
2022-09-06T12:57:30.006Z,34.84
2022-09-06T12:58:33.882Z,34.69
2022-09-06T12:59:36.977Z,35.53
2022-09-06T13:00:52.981Z,34.35
2022-09-06T13:02:07.282Z,34.64
2022-09-06T13:03:35.266Z,35.59
2022-09-06T13:04:50.169Z,35.06
2022-09-06T13:05:55.725Z,35.20
2022-09-06T13:07:01.226Z,35.90
2022-09-06T13:08:04.762Z,36.33
2022-09-06T13:09:11.892Z,36.43
2022-09-06T13:10:18.269Z,36.60
2022-09-06T13:11:28.735Z,37.29
2022-09-06T13:12:38.271Z,38.19
2022-09-06T13:13:55.319Z,38.81
2022-09-06T13:15:04.988Z,39.48
2022-09-06T13:16:08.441Z,38.96
2022-09-06T13:17:24.670Z,38.75
2022-09-06T13:18:39.952Z,39.43
2022-09-06T13:19:43.298Z,38.34
2022-09-06T13:20:46.554Z,38.53
2022-09-06T13:21:52.349Z,39.29
2022-09-06T13:23:09.464Z,39.40
2022-09-06T13:24:35.051Z,39.81
2022-09-06T13:25:49.995Z,40.72
2022-09-06T13:26:53.579Z,40.70
2022-09-06T13:27:58.562Z,41.16
2022-09-06T13:29:24.813Z,41.08
2022-09-06T13:30:42.514Z,41.26
2022-09-06T13:31:48.439Z,41.81
2022-09-06T13:32:51.489Z,41.69
2022-09-06T13:34:00.474Z,41.35
2022-09-06T13:35:04.596Z,41.29
2022-09-06T13:36:27.147Z,41.01
2022-09-06T13:37:34.140Z,41.13
2022-09-06T13:38:42.910Z,40.98
2022-09-06T13:39:46.651Z,41.87
2022-09-06T13:42:31.452Z,41.74
2022-09-06T13:43:45.358Z,42.04
2022-09-06T13:44:48.359Z,41.30
2022-09-06T13:46:12.182Z,41.61
2022-09-06T13:47:15.541Z,42.32
2022-09-06T13:48:29.121Z,42.42
2022-09-06T13:49:34.105Z,42.06
2022-09-06T13:50:37.275Z,42.30
2022-09-06T13:51:43.510Z,43.06
2022-09-06T13:52:49.159Z,43.30
2022-09-06T13:53:52.302Z,43.68
2022-09-06T13:54:56.071Z,43.48
2022-09-06T13:55:59.436Z,43.13
2022-09-06T13:57:02.648Z,43.43
2022-09-06T13:58:06.388Z,43.06
2022-09-06T13:59:13.126Z,42.93
2022-09-06T14:00:17.462Z,43.17
2022-09-06T14:01:20.607Z,43.40
2022-09-06T14:02:25.310Z,43.17
2022-09-06T14:03:32.099Z,43.21
2022-09-06T14:04:36.497Z,43.37
2022-09-06T14:05:40.009Z,43.61
2022-09-06T14:06:43.113Z,43.61
2022-09-06T14:07:47.029Z,43.60
2022-09-06T14:09:06.453Z,43.83
2022-09-06T14:10:11.890Z,43.94
2022-09-06T14:11:15.382Z,43.99
2022-09-06T14:12:18.349Z,44.44
2022-09-06T14:13:25.328Z,44.34
2022-09-06T14:14:28.352Z,44.81
2022-09-06T14:15:35.094Z,45.53
2022-09-06T14:16:39.043Z,45.02
2022-09-06T14:17:42.245Z,44.87
2022-09-06T14:18:45.965Z,45.08
2022-09-06T14:19:50.535Z,44.59
2022-09-06T14:21:00.891Z,44.90
2022-09-06T14:22:05.225Z,45.22
2022-09-06T14:23:08.805Z,45.05
2022-09-06T14:24:11.695Z,45.07
2022-09-06T14:25:15.886Z,45.09
2022-09-06T14:26:21.322Z,45.11
2022-09-06T14:27:24.311Z,45.70
2022-09-06T14:28:28.329Z,46.28
2022-09-06T14:29:31.611Z,46.46
2022-09-06T14:30:34.578Z,47.68
2022-09-06T14:31:39.168Z,47.66
2022-09-06T14:32:42.126Z,47.95
2022-09-06T14:33:45.622Z,47.75
2022-09-06T14:34:50.072Z,47.76
2022-09-06T14:35:52.987Z,47.57
2022-09-06T14:36:56.211Z,47.75
2022-09-06T14:38:01.028Z,48.23
2022-09-06T14:39:05.262Z,49.10
2022-09-06T14:40:10.975Z,49.15
2022-09-06T14:41:15.468Z,49.67
2022-09-06T14:42:18.323Z,49.95
2022-09-06T14:43:21.193Z,49.04
2022-09-06T14:44:24.275Z,49.20
2022-09-06T14:45:27.217Z,49.03
2022-09-06T14:46:30.654Z,48.97
2022-09-06T14:47:34.885Z,49.95
2022-09-06T14:48:41.618Z,50.17
2022-09-06T14:49:45.335Z,49.83
2022-09-06T14:50:48.257Z,50.37
2022-09-06T14:51:52.864Z,50.54
2022-09-06T14:52:55.902Z,51.34
2022-09-06T14:54:05.876Z,51.99
2022-09-06T14:55:09.217Z,52.12
2022-09-06T14:56:13.267Z,52.39
2022-09-06T14:57:16.442Z,52.32
2022-09-06T14:58:19.408Z,52.64
2022-09-06T14:59:22.582Z,52.84
2022-09-06T15:00:25.450Z,53.19
2022-09-06T15:01:35.579Z,53.91
2022-09-06T15:02:41.132Z,54.23
2022-09-06T15:03:48.962Z,53.76
2022-09-06T15:04:51.987Z,52.80
2022-09-06T15:05:54.907Z,53.61
2022-09-06T15:06:57.876Z,53.59
2022-09-06T15:08:00.809Z,54.15
2022-09-06T15:09:04.688Z,54.04
2022-09-06T15:10:07.885Z,54.44
2022-09-06T15:11:12.108Z,55.26
2022-09-06T15:12:15.046Z,56.55